Aviation Digital Data Service (ADDS)

Output produced by METARs form (0224 UTC 26 April 2019)
found at http://www.aviationweather.gov/metar/data/
 
TAF KVBG 252201Z 2522/2704 24009KT 4800 BR BKN003 OVC010 QNH2994INS 
     BECMG 2600/2601 28009KT 1600 BR BKN002 BKN005 QNH2994INS 
     BECMG 2603/2604 VRB06KT 0600 FG VV001 QNH2995INS 
     BECMG 2611/2612 VRB06KT 3200 BR BKN002 OVC004 QNH2996INS 
     BECMG 2615/2616 VRB06KT 4800 BR FEW002 SCT010 QNH3000INS 
     BECMG 2617/2618 26009KT 9999 NSW FEW003 FEW010 QNH2994INS 
     BECMG 2620/2621 30009KT 9999 SCT005 BKN010 QNH2995INS TX15/2522Z TN10/2612Z
LAST NO AMDS AFT 2600 NEXT 2614